sensor_id;sensor_type;location;lat;lon;timestamp;P1;durP1;ratioP1;P2;durP2;ratioP2
21168;SDS011;10742;51.816;8.662;2023-11-21T00:02:39;10.30;;;4.17;;
21168;SDS011;10742;51.816;8.662;2023-11-21T00:06:01;12.70;;;4.67;;
21168;SDS011;10742;51.816;8.662;2023-11-21T00:09:22;26.00;;;9.63;;
21168;SDS011;10742;51.816;8.662;2023-11-21T00:12:43;25.23;;;8.87;;
21168;SDS011;10742;51.816;8.662;2023-11-21T00:16:05;25.67;;;8.00;;
21168;SDS011;10742;51.816;8.662;2023-11-21T00:19:26;17.83;;;6.47;;
21168;SDS011;10742;51.816;8.662;2023-11-21T00:22:48;16.93;;;5.70;;
21168;SDS011;10742;51.816;8.662;2023-11-21T00:26:09;23.57;;;6.90;;
21168;SDS011;10742;51.816;8.662;2023-11-21T00:29:31;17.03;;;6.10;;
21168;SDS011;10742;51.816;8.662;2023-11-21T00:32:51;12.50;;;5.33;;
21168;SDS011;10742;51.816;8.662;2023-11-21T00:36:13;10.80;;;4.80;;
21168;SDS011;10742;51.816;8.662;2023-11-21T00:39:34;14.20;;;4.80;;
21168;SDS011;10742;51.816;8.662;2023-11-21T00:42:56;13.03;;;4.23;;
21168;SDS011;10742;51.816;8.662;2023-11-21T00:46:18;16.67;;;4.70;;
21168;SDS011;10742;51.816;8.662;2023-11-21T00:49:39;12.90;;;4.60;;
21168;SDS011;10742;51.816;8.662;2023-11-21T00:53:00;10.60;;;4.40;;
21168;SDS011;10742;51.816;8.662;2023-11-21T00:56:22;10.07;;;4.57;;
21168;SDS011;10742;51.816;8.662;2023-11-21T00:59:43;12.17;;;4.70;;
21168;SDS011;10742;51.816;8.662;2023-11-21T01:03:05;16.40;;;4.93;;
21168;SDS011;10742;51.816;8.662;2023-11-21T01:06:29;14.97;;;4.70;;
21168;SDS011;10742;51.816;8.662;2023-11-21T01:09:50;11.33;;;5.33;;
21168;SDS011;10742;51.816;8.662;2023-11-21T01:13:11;12.83;;;5.00;;
21168;SDS011;10742;51.816;8.662;2023-11-21T01:16:33;12.40;;;4.87;;
21168;SDS011;10742;51.816;8.662;2023-11-21T01:19:57;13.07;;;4.97;;
21168;SDS011;10742;51.816;8.662;2023-11-21T01:23:18;11.87;;;5.37;;
21168;SDS011;10742;51.816;8.662;2023-11-21T01:26:39;9.17;;;4.37;;
21168;SDS011;10742;51.816;8.662;2023-11-21T01:30:01;16.47;;;4.90;;
21168;SDS011;10742;51.816;8.662;2023-11-21T01:33:23;13.53;;;5.00;;
21168;SDS011;10742;51.816;8.662;2023-11-21T01:36:45;10.17;;;4.80;;
21168;SDS011;10742;51.816;8.662;2023-11-21T01:40:07;10.63;;;4.27;;
21168;SDS011;10742;51.816;8.662;2023-11-21T01:43:34;14.23;;;4.90;;
21168;SDS011;10742;51.816;8.662;2023-11-21T01:46:55;16.60;;;5.03;;
21168;SDS011;10742;51.816;8.662;2023-11-21T01:50:18;11.37;;;4.87;;
21168;SDS011;10742;51.816;8.662;2023-11-21T01:53:39;12.23;;;4.53;;
21168;SDS011;10742;51.816;8.662;2023-11-21T01:57:01;13.47;;;5.27;;
21168;SDS011;10742;51.816;8.662;2023-11-21T02:00:23;9.33;;;4.70;;
21168;SDS011;10742;51.816;8.662;2023-11-21T02:03:45;15.63;;;5.47;;
21168;SDS011;10742;51.816;8.662;2023-11-21T02:07:06;12.33;;;4.90;;
21168;SDS011;10742;51.816;8.662;2023-11-21T02:10:48;9.90;;;4.60;;
21168;SDS011;10742;51.816;8.662;2023-11-21T02:14:09;14.83;;;4.83;;
21168;SDS011;10742;51.816;8.662;2023-11-21T02:17:31;11.13;;;4.53;;
21168;SDS011;10742;51.816;8.662;2023-11-21T02:20:53;13.50;;;4.57;;
21168;SDS011;10742;51.816;8.662;2023-11-21T02:24:15;11.73;;;4.20;;
21168;SDS011;10742;51.816;8.662;2023-11-21T02:27:38;9.77;;;3.97;;
21168;SDS011;10742;51.816;8.662;2023-11-21T02:31:00;10.40;;;4.20;;
21168;SDS011;10742;51.816;8.662;2023-11-21T02:34:23;10.07;;;4.03;;
21168;SDS011;10742;51.816;8.662;2023-11-21T02:37:45;9.03;;;4.37;;
21168;SDS011;10742;51.816;8.662;2023-11-21T02:41:07;8.70;;;4.17;;
21168;SDS011;10742;51.816;8.662;2023-11-21T02:44:28;9.80;;;4.23;;
21168;SDS011;10742;51.816;8.662;2023-11-21T02:47:49;8.30;;;4.27;;
21168;SDS011;10742;51.816;8.662;2023-11-21T02:51:10;11.17;;;4.80;;
21168;SDS011;10742;51.816;8.662;2023-11-21T02:54:32;13.57;;;4.03;;
21168;SDS011;10742;51.816;8.662;2023-11-21T02:57:56;12.70;;;4.70;;
21168;SDS011;10742;51.816;8.662;2023-11-21T03:01:17;12.50;;;4.97;;
21168;SDS011;10742;51.816;8.662;2023-11-21T03:04:38;10.07;;;4.53;;
21168;SDS011;10742;51.816;8.662;2023-11-21T03:08:00;8.60;;;4.20;;
21168;SDS011;10742;51.816;8.662;2023-11-21T03:11:21;10.13;;;4.70;;
21168;SDS011;10742;51.816;8.662;2023-11-21T03:14:42;9.70;;;4.33;;
21168;SDS011;10742;51.816;8.662;2023-11-21T03:18:03;11.70;;;4.50;;
21168;SDS011;10742;51.816;8.662;2023-11-21T03:21:25;8.60;;;4.03;;
21168;SDS011;10742;51.816;8.662;2023-11-21T03:24:46;10.03;;;3.83;;
21168;SDS011;10742;51.816;8.662;2023-11-21T03:28:07;8.87;;;4.07;;
21168;SDS011;10742;51.816;8.662;2023-11-21T03:31:29;9.83;;;3.90;;
21168;SDS011;10742;51.816;8.662;2023-11-21T03:34:54;9.37;;;4.20;;
21168;SDS011;10742;51.816;8.662;2023-11-21T03:38:19;7.73;;;3.83;;
21168;SDS011;10742;51.816;8.662;2023-11-21T03:41:40;6.27;;;3.70;;
21168;SDS011;10742;51.816;8.662;2023-11-21T03:45:02;8.43;;;4.00;;
21168;SDS011;10742;51.816;8.662;2023-11-21T03:48:23;9.93;;;4.37;;
21168;SDS011;10742;51.816;8.662;2023-11-21T03:51:45;10.80;;;3.93;;
21168;SDS011;10742;51.816;8.662;2023-11-21T03:55:06;6.80;;;3.47;;
21168;SDS011;10742;51.816;8.662;2023-11-21T03:58:27;11.90;;;4.20;;
21168;SDS011;10742;51.816;8.662;2023-11-21T04:01:48;7.63;;;3.70;;
21168;SDS011;10742;51.816;8.662;2023-11-21T04:05:09;10.20;;;4.03;;
21168;SDS011;10742;51.816;8.662;2023-11-21T04:08:31;10.00;;;4.20;;
21168;SDS011;10742;51.816;8.662;2023-11-21T04:11:54;9.33;;;4.33;;
21168;SDS011;10742;51.816;8.662;2023-11-21T04:15:16;11.30;;;4.70;;
21168;SDS011;10742;51.816;8.662;2023-11-21T04:18:37;9.80;;;4.37;;
21168;SDS011;10742;51.816;8.662;2023-11-21T04:21:59;10.33;;;4.53;;
21168;SDS011;10742;51.816;8.662;2023-11-21T04:25:20;12.57;;;4.60;;
21168;SDS011;10742;51.816;8.662;2023-11-21T04:28:43;11.07;;;4.47;;
21168;SDS011;10742;51.816;8.662;2023-11-21T04:32:05;10.47;;;4.50;;
21168;SDS011;10742;51.816;8.662;2023-11-21T04:35:27;9.77;;;4.30;;
21168;SDS011;10742;51.816;8.662;2023-11-21T04:38:49;8.93;;;4.13;;
21168;SDS011;10742;51.816;8.662;2023-11-21T04:42:10;11.23;;;4.57;;
21168;SDS011;10742;51.816;8.662;2023-11-21T04:45:32;11.23;;;4.27;;
21168;SDS011;10742;51.816;8.662;2023-11-21T04:48:53;12.23;;;4.97;;
21168;SDS011;10742;51.816;8.662;2023-11-21T04:52:14;10.70;;;4.77;;
21168;SDS011;10742;51.816;8.662;2023-11-21T04:55:35;9.53;;;4.43;;
21168;SDS011;10742;51.816;8.662;2023-11-21T04:58:57;15.43;;;4.73;;
21168;SDS011;10742;51.816;8.662;2023-11-21T05:02:18;11.60;;;5.07;;
21168;SDS011;10742;51.816;8.662;2023-11-21T05:05:46;15.97;;;5.10;;
21168;SDS011;10742;51.816;8.662;2023-11-21T05:09:08;13.83;;;5.27;;
21168;SDS011;10742;51.816;8.662;2023-11-21T05:12:32;10.97;;;5.10;;
21168;SDS011;10742;51.816;8.662;2023-11-21T05:15:59;12.07;;;5.17;;
21168;SDS011;10742;51.816;8.662;2023-11-21T05:19:20;13.23;;;5.53;;
21168;SDS011;10742;51.816;8.662;2023-11-21T05:22:42;11.53;;;5.20;;
21168;SDS011;10742;51.816;8.662;2023-11-21T05:26:04;12.50;;;5.30;;
21168;SDS011;10742;51.816;8.662;2023-11-21T05:29:25;13.70;;;5.27;;
21168;SDS011;10742;51.816;8.662;2023-11-21T05:32:46;11.63;;;5.40;;
21168;SDS011;10742;51.816;8.662;2023-11-21T05:36:08;15.70;;;5.40;;
21168;SDS011;10742;51.816;8.662;2023-11-21T05:39:30;15.53;;;5.63;;
21168;SDS011;10742;51.816;8.662;2023-11-21T05:42:52;13.17;;;5.53;;
21168;SDS011;10742;51.816;8.662;2023-11-21T05:46:13;13.77;;;5.60;;
21168;SDS011;10742;51.816;8.662;2023-11-21T05:49:34;13.10;;;5.30;;
21168;SDS011;10742;51.816;8.662;2023-11-21T05:52:56;13.07;;;5.13;;
21168;SDS011;10742;51.816;8.662;2023-11-21T05:56:20;13.07;;;5.20;;
21168;SDS011;10742;51.816;8.662;2023-11-21T05:59:41;12.63;;;5.40;;
21168;SDS011;10742;51.816;8.662;2023-11-21T06:03:02;12.43;;;5.17;;
21168;SDS011;10742;51.816;8.662;2023-11-21T06:06:24;12.40;;;5.63;;
21168;SDS011;10742;51.816;8.662;2023-11-21T06:09:47;12.77;;;5.47;;
21168;SDS011;10742;51.816;8.662;2023-11-21T06:13:10;14.47;;;6.70;;
21168;SDS011;10742;51.816;8.662;2023-11-21T06:16:32;11.10;;;5.50;;
21168;SDS011;10742;51.816;8.662;2023-11-21T06:19:53;20.30;;;6.63;;
21168;SDS011;10742;51.816;8.662;2023-11-21T06:23:14;17.97;;;6.50;;
21168;SDS011;10742;51.816;8.662;2023-11-21T06:26:37;18.40;;;5.33;;
21168;SDS011;10742;51.816;8.662;2023-11-21T06:29:59;13.60;;;5.37;;
21168;SDS011;10742;51.816;8.662;2023-11-21T06:33:21;14.03;;;5.67;;
21168;SDS011;10742;51.816;8.662;2023-11-21T06:36:42;14.73;;;5.33;;
21168;SDS011;10742;51.816;8.662;2023-11-21T06:40:03;17.73;;;5.57;;
21168;SDS011;10742;51.816;8.662;2023-11-21T06:43:25;16.30;;;6.03;;
21168;SDS011;10742;51.816;8.662;2023-11-21T06:46:47;11.80;;;5.53;;
21168;SDS011;10742;51.816;8.662;2023-11-21T06:50:09;15.37;;;6.03;;
21168;SDS011;10742;51.816;8.662;2023-11-21T06:53:30;11.10;;;5.97;;
21168;SDS011;10742;51.816;8.662;2023-11-21T06:56:52;14.70;;;6.23;;
21168;SDS011;10742;51.816;8.662;2023-11-21T07:00:15;17.73;;;8.67;;
21168;SDS011;10742;51.816;8.662;2023-11-21T07:03:39;21.73;;;8.10;;
21168;SDS011;10742;51.816;8.662;2023-11-21T07:07:00;13.17;;;6.80;;
21168;SDS011;10742;51.816;8.662;2023-11-21T07:10:21;12.23;;;5.50;;
21168;SDS011;10742;51.816;8.662;2023-11-21T07:13:43;14.80;;;6.13;;
21168;SDS011;10742;51.816;8.662;2023-11-21T07:17:04;17.07;;;6.33;;
21168;SDS011;10742;51.816;8.662;2023-11-21T07:20:27;18.30;;;5.80;;
21168;SDS011;10742;51.816;8.662;2023-11-21T07:23:48;12.17;;;5.67;;
21168;SDS011;10742;51.816;8.662;2023-11-21T07:27:10;16.83;;;6.40;;
21168;SDS011;10742;51.816;8.662;2023-11-21T07:30:31;20.23;;;6.43;;
21168;SDS011;10742;51.816;8.662;2023-11-21T07:33:53;15.60;;;6.77;;
21168;SDS011;10742;51.816;8.662;2023-11-21T07:37:14;14.80;;;6.20;;
21168;SDS011;10742;51.816;8.662;2023-11-21T07:40:35;19.13;;;7.67;;
21168;SDS011;10742;51.816;8.662;2023-11-21T07:43:56;16.67;;;7.13;;
21168;SDS011;10742;51.816;8.662;2023-11-21T07:47:18;16.73;;;7.17;;
21168;SDS011;10742;51.816;8.662;2023-11-21T07:50:39;18.23;;;8.00;;
21168;SDS011;10742;51.816;8.662;2023-11-21T07:54:00;22.80;;;8.20;;
21168;SDS011;10742;51.816;8.662;2023-11-21T07:57:21;19.03;;;8.20;;
21168;SDS011;10742;51.816;8.662;2023-11-21T08:00:45;17.07;;;7.80;;
21168;SDS011;10742;51.816;8.662;2023-11-21T08:04:06;20.03;;;8.50;;
21168;SDS011;10742;51.816;8.662;2023-11-21T08:07:29;22.23;;;9.10;;
21168;SDS011;10742;51.816;8.662;2023-11-21T08:10:50;21.27;;;8.60;;
21168;SDS011;10742;51.816;8.662;2023-11-21T08:14:18;21.73;;;8.50;;
21168;SDS011;10742;51.816;8.662;2023-11-21T08:17:41;24.17;;;9.67;;
21168;SDS011;10742;51.816;8.662;2023-11-21T08:21:02;21.90;;;8.70;;
21168;SDS011;10742;51.816;8.662;2023-11-21T08:24:25;22.07;;;10.03;;
21168;SDS011;10742;51.816;8.662;2023-11-21T08:27:47;24.53;;;10.03;;
21168;SDS011;10742;51.816;8.662;2023-11-21T08:31:09;25.37;;;10.67;;
21168;SDS011;10742;51.816;8.662;2023-11-21T08:34:32;27.20;;;10.40;;
21168;SDS011;10742;51.816;8.662;2023-11-21T08:37:54;25.87;;;11.83;;
21168;SDS011;10742;51.816;8.662;2023-11-21T08:41:15;28.77;;;11.80;;
21168;SDS011;10742;51.816;8.662;2023-11-21T08:44:37;26.00;;;11.83;;
21168;SDS011;10742;51.816;8.662;2023-11-21T08:48:02;25.10;;;11.37;;
21168;SDS011;10742;51.816;8.662;2023-11-21T08:51:24;21.80;;;10.53;;
21168;SDS011;10742;51.816;8.662;2023-11-21T08:54:46;31.50;;;13.27;;
21168;SDS011;10742;51.816;8.662;2023-11-21T08:58:07;27.30;;;13.00;;
21168;SDS011;10742;51.816;8.662;2023-11-21T09:01:29;25.97;;;10.90;;
21168;SDS011;10742;51.816;8.662;2023-11-21T09:04:52;25.37;;;11.40;;
21168;SDS011;10742;51.816;8.662;2023-11-21T09:08:13;25.40;;;11.13;;
21168;SDS011;10742;51.816;8.662;2023-11-21T09:11:35;26.70;;;11.90;;
21168;SDS011;10742;51.816;8.662;2023-11-21T09:14:56;28.63;;;12.30;;
21168;SDS011;10742;51.816;8.662;2023-11-21T09:18:18;27.70;;;13.00;;
21168;SDS011;10742;51.816;8.662;2023-11-21T09:21:39;28.53;;;12.00;;
21168;SDS011;10742;51.816;8.662;2023-11-21T09:25:00;26.30;;;11.93;;
21168;SDS011;10742;51.816;8.662;2023-11-21T09:28:25;25.03;;;11.30;;
21168;SDS011;10742;51.816;8.662;2023-11-21T09:31:48;27.87;;;11.93;;
21168;SDS011;10742;51.816;8.662;2023-11-21T09:35:11;24.23;;;10.80;;
21168;SDS011;10742;51.816;8.662;2023-11-21T09:38:34;27.30;;;11.77;;
21168;SDS011;10742;51.816;8.662;2023-11-21T09:42:00;25.53;;;11.37;;
21168;SDS011;10742;51.816;8.662;2023-11-21T09:45:26;25.33;;;11.10;;
21168;SDS011;10742;51.816;8.662;2023-11-21T09:48:50;24.70;;;11.00;;
21168;SDS011;10742;51.816;8.662;2023-11-21T09:52:26;25.10;;;11.10;;
21168;SDS011;10742;51.816;8.662;2023-11-21T09:55:48;24.87;;;11.00;;
21168;SDS011;10742;51.816;8.662;2023-11-21T09:59:13;27.20;;;11.90;;
21168;SDS011;10742;51.816;8.662;2023-11-21T10:02:36;25.13;;;11.63;;
21168;SDS011;10742;51.816;8.662;2023-11-21T10:05:59;25.27;;;11.33;;
21168;SDS011;10742;51.816;8.662;2023-11-21T10:09:23;27.40;;;12.83;;
21168;SDS011;10742;51.816;8.662;2023-11-21T10:12:51;27.43;;;10.87;;
21168;SDS011;10742;51.816;8.662;2023-11-21T10:16:16;26.63;;;10.80;;
21168;SDS011;10742;51.816;8.662;2023-11-21T10:19:41;23.43;;;9.80;;
21168;SDS011;10742;51.816;8.662;2023-11-21T10:23:04;29.03;;;11.63;;
21168;SDS011;10742;51.816;8.662;2023-11-21T10:26:28;24.63;;;11.63;;
21168;SDS011;10742;51.816;8.662;2023-11-21T10:29:54;25.90;;;10.53;;
21168;SDS011;10742;51.816;8.662;2023-11-21T10:33:15;24.53;;;10.10;;
21168;SDS011;10742;51.816;8.662;2023-11-21T10:36:37;24.03;;;10.40;;
21168;SDS011;10742;51.816;8.662;2023-11-21T10:39:58;26.00;;;10.30;;
21168;SDS011;10742;51.816;8.662;2023-11-21T10:43:20;24.87;;;10.87;;
21168;SDS011;10742;51.816;8.662;2023-11-21T10:46:53;24.40;;;10.47;;
21168;SDS011;10742;51.816;8.662;2023-11-21T10:50:18;23.50;;;9.63;;
21168;SDS011;10742;51.816;8.662;2023-11-21T10:53:40;20.83;;;8.90;;
21168;SDS011;10742;51.816;8.662;2023-11-21T10:57:02;19.07;;;7.67;;
21168;SDS011;10742;51.816;8.662;2023-11-21T11:00:25;16.80;;;7.43;;
21168;SDS011;10742;51.816;8.662;2023-11-21T11:03:48;17.37;;;7.27;;
21168;SDS011;10742;51.816;8.662;2023-11-21T11:07:10;12.87;;;6.03;;
21168;SDS011;10742;51.816;8.662;2023-11-21T11:10:36;13.17;;;5.60;;
21168;SDS011;10742;51.816;8.662;2023-11-21T11:13:59;11.70;;;5.43;;
21168;SDS011;10742;51.816;8.662;2023-11-21T11:17:20;10.40;;;5.00;;
21168;SDS011;10742;51.816;8.662;2023-11-21T11:20:42;12.10;;;5.07;;
21168;SDS011;10742;51.816;8.662;2023-11-21T11:24:13;15.03;;;5.83;;
21168;SDS011;10742;51.816;8.662;2023-11-21T11:28:10;10.17;;;5.07;;
21168;SDS011;10742;51.816;8.662;2023-11-21T11:31:46;14.17;;;5.93;;
21168;SDS011;10742;51.816;8.662;2023-11-21T11:39:39;12.47;;;5.30;;
21168;SDS011;10742;51.816;8.662;2023-11-21T11:43:08;10.03;;;5.03;;
21168;SDS011;10742;51.816;8.662;2023-11-21T11:46:44;11.73;;;5.47;;
21168;SDS011;10742;51.816;8.662;2023-11-21T11:50:11;10.80;;;5.00;;
21168;SDS011;10742;51.816;8.662;2023-11-21T11:53:41;11.90;;;5.77;;
21168;SDS011;10742;51.816;8.662;2023-11-21T11:57:06;15.30;;;6.03;;
21168;SDS011;10742;51.816;8.662;2023-11-21T12:07:45;10.07;;;5.23;;
21168;SDS011;10742;51.816;8.662;2023-11-21T12:11:07;10.20;;;5.23;;
21168;SDS011;10742;51.816;8.662;2023-11-21T12:14:28;10.47;;;5.10;;
21168;SDS011;10742;51.816;8.662;2023-11-21T12:17:51;8.93;;;4.53;;
21168;SDS011;10742;51.816;8.662;2023-11-21T12:21:13;9.03;;;4.50;;
21168;SDS011;10742;51.816;8.662;2023-11-21T12:24:34;9.37;;;4.87;;
21168;SDS011;10742;51.816;8.662;2023-11-21T12:27:56;7.57;;;3.93;;
21168;SDS011;10742;51.816;8.662;2023-11-21T12:31:18;7.60;;;4.23;;
21168;SDS011;10742;51.816;8.662;2023-11-21T12:34:39;7.70;;;3.83;;
21168;SDS011;10742;51.816;8.662;2023-11-21T12:38:02;6.83;;;4.10;;
21168;SDS011;10742;51.816;8.662;2023-11-21T12:41:24;9.53;;;4.20;;
21168;SDS011;10742;51.816;8.662;2023-11-21T12:44:46;7.93;;;4.50;;
21168;SDS011;10742;51.816;8.662;2023-11-21T12:48:08;10.00;;;4.43;;
21168;SDS011;10742;51.816;8.662;2023-11-21T12:51:32;11.63;;;5.30;;
21168;SDS011;10742;51.816;8.662;2023-11-21T12:54:54;9.83;;;4.70;;
21168;SDS011;10742;51.816;8.662;2023-11-21T12:58:16;10.23;;;4.93;;
21168;SDS011;10742;51.816;8.662;2023-11-21T13:01:44;10.97;;;5.37;;
21168;SDS011;10742;51.816;8.662;2023-11-21T13:05:07;11.70;;;5.17;;
21168;SDS011;10742;51.816;8.662;2023-11-21T13:08:33;11.67;;;5.20;;
21168;SDS011;10742;51.816;8.662;2023-11-21T13:12:01;11.80;;;5.20;;
21168;SDS011;10742;51.816;8.662;2023-11-21T13:15:27;13.63;;;5.93;;
21168;SDS011;10742;51.816;8.662;2023-11-21T13:18:48;13.23;;;5.20;;
21168;SDS011;10742;51.816;8.662;2023-11-21T13:22:10;10.43;;;4.73;;
21168;SDS011;10742;51.816;8.662;2023-11-21T13:25:32;7.87;;;4.20;;
21168;SDS011;10742;51.816;8.662;2023-11-21T13:28:54;6.83;;;3.43;;
21168;SDS011;10742;51.816;8.662;2023-11-21T13:32:17;9.37;;;4.53;;
21168;SDS011;10742;51.816;8.662;2023-11-21T13:35:41;12.40;;;5.03;;
21168;SDS011;10742;51.816;8.662;2023-11-21T13:39:03;7.53;;;4.13;;
21168;SDS011;10742;51.816;8.662;2023-11-21T13:42:36;11.43;;;4.53;;
21168;SDS011;10742;51.816;8.662;2023-11-21T13:45:57;11.00;;;4.57;;
21168;SDS011;10742;51.816;8.662;2023-11-21T13:49:33;8.17;;;4.43;;
21168;SDS011;10742;51.816;8.662;2023-11-21T13:53:01;12.20;;;4.30;;
21168;SDS011;10742;51.816;8.662;2023-11-21T13:56:29;12.17;;;4.60;;
21168;SDS011;10742;51.816;8.662;2023-11-21T13:59:50;7.90;;;3.80;;
21168;SDS011;10742;51.816;8.662;2023-11-21T14:03:13;10.20;;;4.67;;
21168;SDS011;10742;51.816;8.662;2023-11-21T14:06:47;9.40;;;4.73;;
21168;SDS011;10742;51.816;8.662;2023-11-21T14:10:11;7.10;;;4.10;;
21168;SDS011;10742;51.816;8.662;2023-11-21T14:13:35;9.60;;;4.57;;
21168;SDS011;10742;51.816;8.662;2023-11-21T14:16:56;11.33;;;4.33;;
21168;SDS011;10742;51.816;8.662;2023-11-21T14:20:19;9.00;;;4.20;;
21168;SDS011;10742;51.816;8.662;2023-11-21T14:23:43;9.00;;;4.13;;
21168;SDS011;10742;51.816;8.662;2023-11-21T14:27:06;8.73;;;4.27;;
21168;SDS011;10742;51.816;8.662;2023-11-21T14:30:27;10.83;;;3.87;;
21168;SDS011;10742;51.816;8.662;2023-11-21T14:33:50;8.93;;;4.23;;
21168;SDS011;10742;51.816;8.662;2023-11-21T14:37:11;9.97;;;4.10;;
21168;SDS011;10742;51.816;8.662;2023-11-21T14:40:34;11.60;;;4.70;;
21168;SDS011;10742;51.816;8.662;2023-11-21T14:43:56;10.07;;;4.60;;
21168;SDS011;10742;51.816;8.662;2023-11-21T14:47:17;9.77;;;4.53;;
21168;SDS011;10742;51.816;8.662;2023-11-21T14:50:45;12.20;;;5.27;;
21168;SDS011;10742;51.816;8.662;2023-11-21T14:54:30;14.17;;;4.83;;
21168;SDS011;10742;51.816;8.662;2023-11-21T14:58:00;13.00;;;4.90;;
21168;SDS011;10742;51.816;8.662;2023-11-21T15:01:25;10.73;;;4.70;;
21168;SDS011;10742;51.816;8.662;2023-11-21T15:05:05;13.20;;;5.13;;
21168;SDS011;10742;51.816;8.662;2023-11-21T15:08:29;11.40;;;5.10;;
21168;SDS011;10742;51.816;8.662;2023-11-21T15:11:53;11.00;;;4.80;;
21168;SDS011;10742;51.816;8.662;2023-11-21T15:15:19;11.10;;;5.00;;
21168;SDS011;10742;51.816;8.662;2023-11-21T15:18:41;12.50;;;5.00;;
21168;SDS011;10742;51.816;8.662;2023-11-21T15:22:02;13.03;;;5.77;;
21168;SDS011;10742;51.816;8.662;2023-11-21T15:25:24;16.60;;;6.33;;
21168;SDS011;10742;51.816;8.662;2023-11-21T15:28:45;13.97;;;5.53;;
21168;SDS011;10742;51.816;8.662;2023-11-21T15:32:06;11.30;;;5.43;;
21168;SDS011;10742;51.816;8.662;2023-11-21T15:35:28;12.10;;;4.90;;
21168;SDS011;10742;51.816;8.662;2023-11-21T15:38:49;9.60;;;4.60;;
21168;SDS011;10742;51.816;8.662;2023-11-21T15:42:10;9.43;;;4.20;;
21168;SDS011;10742;51.816;8.662;2023-11-21T15:45:32;9.60;;;4.60;;
21168;SDS011;10742;51.816;8.662;2023-11-21T15:48:53;12.33;;;4.83;;
21168;SDS011;10742;51.816;8.662;2023-11-21T15:52:14;11.23;;;4.33;;
21168;SDS011;10742;51.816;8.662;2023-11-21T15:55:36;10.77;;;4.90;;
21168;SDS011;10742;51.816;8.662;2023-11-21T15:59:03;11.23;;;4.37;;
21168;SDS011;10742;51.816;8.662;2023-11-21T16:02:24;11.93;;;4.80;;
21168;SDS011;10742;51.816;8.662;2023-11-21T16:05:45;11.20;;;4.47;;
21168;SDS011;10742;51.816;8.662;2023-11-21T16:09:07;12.80;;;5.67;;
21168;SDS011;10742;51.816;8.662;2023-11-21T16:12:38;11.43;;;5.20;;
21168;SDS011;10742;51.816;8.662;2023-11-21T16:16:01;11.37;;;5.17;;
21168;SDS011;10742;51.816;8.662;2023-11-21T16:19:22;13.33;;;5.03;;
21168;SDS011;10742;51.816;8.662;2023-11-21T16:22:43;11.60;;;4.40;;
21168;SDS011;10742;51.816;8.662;2023-11-21T16:26:06;12.00;;;5.50;;
21168;SDS011;10742;51.816;8.662;2023-11-21T16:29:27;14.00;;;5.40;;
21168;SDS011;10742;51.816;8.662;2023-11-21T16:32:51;12.47;;;5.37;;
21168;SDS011;10742;51.816;8.662;2023-11-21T16:36:12;11.93;;;5.27;;
21168;SDS011;10742;51.816;8.662;2023-11-21T16:39:33;13.10;;;4.90;;
21168;SDS011;10742;51.816;8.662;2023-11-21T16:42:54;10.87;;;4.83;;
21168;SDS011;10742;51.816;8.662;2023-11-21T16:46:17;15.97;;;5.70;;
21168;SDS011;10742;51.816;8.662;2023-11-21T16:49:39;12.93;;;5.30;;
21168;SDS011;10742;51.816;8.662;2023-11-21T16:53:01;12.87;;;5.50;;
21168;SDS011;10742;51.816;8.662;2023-11-21T16:56:23;12.03;;;4.80;;
21168;SDS011;10742;51.816;8.662;2023-11-21T16:59:44;12.07;;;5.07;;
21168;SDS011;10742;51.816;8.662;2023-11-21T17:03:10;11.77;;;5.00;;
21168;SDS011;10742;51.816;8.662;2023-11-21T17:06:32;11.87;;;4.93;;
21168;SDS011;10742;51.816;8.662;2023-11-21T17:09:54;12.13;;;5.63;;
21168;SDS011;10742;51.816;8.662;2023-11-21T17:13:15;12.77;;;5.43;;
21168;SDS011;10742;51.816;8.662;2023-11-21T17:16:37;13.10;;;5.50;;
21168;SDS011;10742;51.816;8.662;2023-11-21T17:20:00;13.17;;;5.33;;
21168;SDS011;10742;51.816;8.662;2023-11-21T17:23:26;13.13;;;5.67;;
21168;SDS011;10742;51.816;8.662;2023-11-21T17:26:50;11.60;;;4.93;;
21168;SDS011;10742;51.816;8.662;2023-11-21T17:30:11;10.90;;;5.27;;
21168;SDS011;10742;51.816;8.662;2023-11-21T17:33:33;10.27;;;5.03;;
21168;SDS011;10742;51.816;8.662;2023-11-21T17:36:55;13.17;;;4.80;;
21168;SDS011;10742;51.816;8.662;2023-11-21T17:40:16;12.67;;;4.97;;
21168;SDS011;10742;51.816;8.662;2023-11-21T17:43:38;10.93;;;5.33;;
21168;SDS011;10742;51.816;8.662;2023-11-21T17:47:05;10.37;;;5.00;;
21168;SDS011;10742;51.816;8.662;2023-11-21T17:50:26;12.97;;;5.43;;
21168;SDS011;10742;51.816;8.662;2023-11-21T17:53:47;13.43;;;5.53;;
21168;SDS011;10742;51.816;8.662;2023-11-21T17:57:09;12.93;;;5.10;;
21168;SDS011;10742;51.816;8.662;2023-11-21T18:00:30;7.63;;;4.20;;
21168;SDS011;10742;51.816;8.662;2023-11-21T18:03:51;9.53;;;4.90;;
21168;SDS011;10742;51.816;8.662;2023-11-21T18:07:13;10.97;;;4.60;;
21168;SDS011;10742;51.816;8.662;2023-11-21T18:10:36;10.90;;;4.50;;
21168;SDS011;10742;51.816;8.662;2023-11-21T18:13:57;10.57;;;4.80;;
21168;SDS011;10742;51.816;8.662;2023-11-21T18:17:18;11.80;;;4.60;;
21168;SDS011;10742;51.816;8.662;2023-11-21T18:20:40;13.60;;;4.67;;
21168;SDS011;10742;51.816;8.662;2023-11-21T18:24:02;9.50;;;4.90;;
21168;SDS011;10742;51.816;8.662;2023-11-21T18:27:23;9.97;;;4.67;;
21168;SDS011;10742;51.816;8.662;2023-11-21T18:30:50;8.70;;;4.40;;
21168;SDS011;10742;51.816;8.662;2023-11-21T18:34:11;9.37;;;4.37;;
21168;SDS011;10742;51.816;8.662;2023-11-21T18:37:32;7.40;;;4.37;;
21168;SDS011;10742;51.816;8.662;2023-11-21T18:40:53;11.03;;;4.90;;
21168;SDS011;10742;51.816;8.662;2023-11-21T18:44:14;12.40;;;4.53;;
21168;SDS011;10742;51.816;8.662;2023-11-21T18:47:35;17.40;;;5.30;;
21168;SDS011;10742;51.816;8.662;2023-11-21T18:50:57;12.90;;;4.87;;
21168;SDS011;10742;51.816;8.662;2023-11-21T18:54:18;15.63;;;4.90;;
21168;SDS011;10742;51.816;8.662;2023-11-21T18:57:40;11.03;;;4.60;;
21168;SDS011;10742;51.816;8.662;2023-11-21T19:01:02;10.60;;;4.87;;
21168;SDS011;10742;51.816;8.662;2023-11-21T19:04:23;11.80;;;5.00;;
21168;SDS011;10742;51.816;8.662;2023-11-21T19:07:44;19.60;;;6.33;;
21168;SDS011;10742;51.816;8.662;2023-11-21T19:11:05;13.20;;;4.43;;
21168;SDS011;10742;51.816;8.662;2023-11-21T19:14:27;11.23;;;4.03;;
21168;SDS011;10742;51.816;8.662;2023-11-21T19:17:51;8.50;;;4.07;;
21168;SDS011;10742;51.816;8.662;2023-11-21T19:21:15;8.33;;;3.87;;
21168;SDS011;10742;51.816;8.662;2023-11-21T19:24:37;9.03;;;4.23;;
21168;SDS011;10742;51.816;8.662;2023-11-21T19:27:59;10.83;;;4.40;;
21168;SDS011;10742;51.816;8.662;2023-11-21T19:31:21;8.87;;;4.17;;
21168;SDS011;10742;51.816;8.662;2023-11-21T19:34:43;10.20;;;4.47;;
21168;SDS011;10742;51.816;8.662;2023-11-21T19:38:07;8.90;;;4.13;;
21168;SDS011;10742;51.816;8.662;2023-11-21T19:41:32;11.10;;;4.20;;
21168;SDS011;10742;51.816;8.662;2023-11-21T19:44:54;8.53;;;4.00;;
21168;SDS011;10742;51.816;8.662;2023-11-21T19:48:15;11.77;;;4.10;;
21168;SDS011;10742;51.816;8.662;2023-11-21T19:51:39;8.63;;;4.00;;
21168;SDS011;10742;51.816;8.662;2023-11-21T19:55:01;8.73;;;4.17;;
21168;SDS011;10742;51.816;8.662;2023-11-21T19:58:24;9.87;;;4.43;;
21168;SDS011;10742;51.816;8.662;2023-11-21T20:01:45;10.10;;;3.93;;
21168;SDS011;10742;51.816;8.662;2023-11-21T20:05:08;8.33;;;4.10;;
21168;SDS011;10742;51.816;8.662;2023-11-21T20:08:31;9.93;;;4.63;;
21168;SDS011;10742;51.816;8.662;2023-11-21T20:11:54;9.00;;;4.03;;
21168;SDS011;10742;51.816;8.662;2023-11-21T20:15:18;9.83;;;4.10;;
21168;SDS011;10742;51.816;8.662;2023-11-21T20:18:39;9.30;;;4.30;;